createdAt,value
2023-03-03T00:01:15.420Z,17.83
2023-03-03T00:03:42.345Z,10.63
2023-03-03T00:06:12.047Z,49.17
2023-03-03T00:08:39.911Z,7.32
2023-03-03T00:11:07.762Z,8.50
2023-03-03T00:13:44.826Z,6.47
2023-03-03T00:16:13.970Z,23.98
2023-03-03T00:18:44.259Z,46.90
2023-03-03T00:21:29.605Z,11.57
2023-03-03T00:24:14.517Z,7.43
2023-03-03T00:26:44.386Z,8.85
2023-03-03T00:29:31.004Z,11.63
2023-03-03T00:32:25.835Z,8.38
2023-03-03T00:34:55.124Z,13.77
2023-03-03T00:37:30.727Z,19.08
2023-03-03T00:40:09.731Z,6.75
2023-03-03T00:42:36.323Z,9.80
2023-03-03T00:45:37.136Z,9.30
2023-03-03T00:48:35.540Z,25.42
2023-03-03T00:51:27.568Z,9.23
2023-03-03T00:53:54.875Z,10.15
2023-03-03T00:56:21.538Z,8.93
2023-03-03T00:58:48.323Z,12.60
2023-03-03T01:01:16.281Z,11.02
2023-03-03T01:03:43.133Z,12.02
2023-03-03T01:06:10.921Z,26.25
2023-03-03T01:08:38.131Z,20.83
2023-03-03T01:11:10.594Z,18.83
2023-03-03T01:13:39.306Z,18.40
2023-03-03T01:16:06.382Z,13.75
2023-03-03T01:18:33.323Z,14.23
2023-03-03T01:21:01.900Z,14.20
2023-03-03T01:23:28.897Z,13.43
2023-03-03T01:25:55.567Z,14.50
2023-03-03T01:28:22.600Z,24.98
2023-03-03T01:30:49.288Z,8.75
2023-03-03T01:33:15.881Z,12.90
2023-03-03T01:35:48.946Z,13.43
2023-03-03T01:38:15.989Z,13.52
2023-03-03T01:40:42.664Z,13.75
2023-03-03T01:43:12.032Z,12.32
2023-03-03T01:46:02.029Z,15.27
2023-03-03T01:48:34.367Z,15.98
2023-03-03T01:51:10.512Z,16.90
2023-03-03T01:53:44.538Z,50.60
2023-03-03T01:56:11.440Z,12.85
2023-03-03T01:58:43.943Z,16.92
2023-03-03T02:01:15.621Z,17.20
2023-03-03T02:03:43.893Z,13.98
2023-03-03T02:06:15.204Z,19.48
2023-03-03T02:08:54.407Z,23.95
2023-03-03T02:11:22.411Z,57.83
2023-03-03T02:13:49.144Z,18.02
2023-03-03T02:16:16.005Z,23.67
2023-03-03T02:18:42.665Z,17.95
2023-03-03T02:21:14.294Z,29.80
2023-03-03T02:23:56.338Z,20.98
2023-03-03T02:26:26.187Z,18.50
2023-03-03T02:28:53.078Z,21.85
2023-03-03T02:31:22.521Z,22.10
2023-03-03T02:33:51.438Z,20.50
2023-03-03T02:36:44.182Z,20.50
2023-03-03T02:39:22.081Z,21.50
2023-03-03T02:42:08.863Z,20.38
2023-03-03T02:44:36.047Z,20.70
2023-03-03T02:47:02.667Z,23.20
2023-03-03T02:49:32.546Z,26.15
2023-03-03T02:52:00.792Z,27.50
2023-03-03T02:54:30.756Z,45.35
2023-03-03T02:56:58.282Z,28.73
2023-03-03T02:59:24.922Z,23.27
2023-03-03T03:01:52.887Z,37.05
2023-03-03T03:04:22.524Z,24.58
2023-03-03T03:06:49.588Z,27.85
2023-03-03T03:09:17.115Z,27.60
2023-03-03T03:11:44.513Z,23.85
2023-03-03T03:14:13.253Z,21.70
2023-03-03T03:16:40.434Z,34.67
2023-03-03T03:19:07.757Z,24.10
2023-03-03T03:21:34.693Z,33.58
2023-03-03T03:24:01.288Z,23.92
2023-03-03T03:26:27.957Z,21.60
2023-03-03T03:28:55.072Z,30.90
2023-03-03T03:31:22.608Z,25.85
2023-03-03T03:33:49.215Z,25.40
2023-03-03T03:36:16.410Z,25.60
2023-03-03T03:38:43.214Z,22.27
2023-03-03T03:41:11.010Z,24.90
2023-03-03T03:43:37.881Z,24.73
2023-03-03T03:46:04.674Z,28.92
2023-03-03T03:48:31.280Z,24.50
2023-03-03T03:50:57.901Z,23.33
2023-03-03T03:53:24.510Z,37.05
2023-03-03T03:55:51.198Z,34.63
2023-03-03T03:58:18.596Z,29.10
2023-03-03T04:00:46.572Z,30.40
2023-03-03T04:03:14.527Z,53.83
2023-03-03T04:05:41.427Z,40.20
2023-03-03T04:08:08.961Z,41.78
2023-03-03T04:10:35.863Z,24.48
2023-03-03T04:13:02.507Z,61.58
2023-03-03T04:15:29.149Z,54.10
2023-03-03T04:17:55.729Z,34.65
2023-03-03T04:20:22.293Z,45.15
2023-03-03T04:22:49.001Z,47.15
2023-03-03T04:25:17.124Z,46.92
2023-03-03T04:27:44.291Z,26.80
2023-03-03T04:30:12.430Z,28.70
2023-03-03T04:32:39.056Z,28.42
2023-03-03T04:35:08.417Z,30.13
2023-03-03T04:37:36.042Z,25.90
2023-03-03T04:40:03.560Z,27.08
2023-03-03T04:42:30.188Z,27.75
2023-03-03T04:44:56.843Z,27.15
2023-03-03T04:47:23.480Z,28.33
2023-03-03T04:49:50.048Z,30.52
2023-03-03T04:52:16.712Z,30.17
2023-03-03T04:54:43.368Z,48.30
2023-03-03T04:57:09.981Z,28.33
2023-03-03T04:59:36.840Z,33.78
2023-03-03T05:02:05.218Z,28.02
2023-03-03T05:04:32.987Z,25.23
2023-03-03T05:06:59.655Z,30.80
2023-03-03T05:09:26.339Z,31.58
2023-03-03T05:11:53.530Z,28.55
2023-03-03T05:14:20.574Z,29.02
2023-03-03T05:16:47.388Z,31.80
2023-03-03T05:19:14.053Z,31.25
2023-03-03T05:21:43.515Z,30.38
2023-03-03T05:24:11.765Z,30.65
2023-03-03T05:26:39.616Z,29.92
2023-03-03T05:29:06.957Z,17.80
2023-03-03T05:31:33.927Z,26.10
2023-03-03T05:34:00.769Z,28.27
2023-03-03T05:36:27.429Z,30.83
2023-03-03T05:38:54.022Z,34.95
2023-03-03T05:41:20.658Z,29.50
2023-03-03T05:43:47.292Z,32.67
2023-03-03T05:46:13.972Z,32.33
2023-03-03T05:48:40.635Z,37.63
2023-03-03T05:51:07.292Z,32.92
2023-03-03T05:53:34.133Z,31.42
2023-03-03T05:56:00.749Z,40.95
2023-03-03T05:58:27.643Z,30.58
2023-03-03T06:00:54.414Z,32.95
2023-03-03T06:03:21.189Z,42.10
2023-03-03T06:05:48.085Z,42.53
2023-03-03T06:08:14.730Z,48.63
2023-03-03T06:10:41.372Z,33.92
2023-03-03T06:13:07.958Z,27.85
2023-03-03T06:15:34.591Z,30.30
2023-03-03T06:18:01.252Z,41.55
2023-03-03T06:20:27.887Z,30.85
2023-03-03T06:22:54.462Z,34.63
2023-03-03T06:25:21.269Z,66.00
2023-03-03T06:27:47.844Z,48.58
2023-03-03T06:30:14.792Z,35.95
2023-03-03T06:32:41.412Z,38.70
2023-03-03T06:35:08.179Z,43.20
2023-03-03T06:37:34.786Z,60.08
2023-03-03T06:40:01.499Z,42.88
2023-03-03T06:42:28.084Z,43.03
2023-03-03T06:44:54.701Z,58.42
2023-03-03T06:47:21.380Z,30.95
2023-03-03T06:49:48.043Z,33.45
2023-03-03T06:52:19.496Z,50.67
2023-03-03T06:54:46.144Z,31.33
2023-03-03T06:57:22.555Z,30.83
2023-03-03T06:59:53.567Z,29.67
2023-03-03T07:02:22.070Z,33.00
2023-03-03T07:04:48.957Z,31.05
2023-03-03T07:07:24.532Z,57.25
2023-03-03T07:09:56.730Z,32.83
2023-03-03T07:12:26.780Z,33.25
2023-03-03T07:15:13.020Z,55.50
2023-03-03T07:17:50.968Z,33.45
2023-03-03T07:20:35.483Z,70.82
2023-03-03T07:23:20.910Z,31.90
2023-03-03T07:25:48.499Z,35.47
2023-03-03T07:28:27.172Z,41.38
2023-03-03T07:30:55.080Z,63.63
2023-03-03T07:33:31.756Z,31.33
2023-03-03T07:36:00.287Z,33.92
2023-03-03T07:38:42.507Z,35.20
2023-03-03T07:41:20.747Z,47.35
2023-03-03T07:43:55.052Z,42.65
2023-03-03T07:46:23.904Z,42.55
2023-03-03T07:48:51.772Z,50.13
2023-03-03T07:51:23.096Z,38.75
2023-03-03T07:53:49.733Z,31.52
2023-03-03T07:56:26.763Z,32.60
2023-03-03T07:58:55.960Z,36.58
2023-03-03T08:01:43.401Z,33.45
2023-03-03T08:04:21.646Z,81.55
2023-03-03T08:06:53.679Z,39.85
2023-03-03T08:09:20.390Z,45.67
2023-03-03T08:12:00.042Z,54.75
2023-03-03T08:14:30.253Z,34.42
2023-03-03T08:16:59.813Z,32.05
2023-03-03T08:19:29.799Z,40.85
2023-03-03T08:22:09.278Z,35.08
2023-03-03T08:24:38.377Z,74.15
2023-03-03T08:27:05.141Z,32.72
2023-03-03T08:29:31.735Z,31.13
2023-03-03T08:31:58.482Z,37.58
2023-03-03T08:34:25.148Z,50.40
2023-03-03T08:36:52.104Z,35.85
2023-03-03T08:39:18.771Z,39.83
2023-03-03T08:41:46.140Z,35.22
2023-03-03T08:44:12.743Z,42.50
2023-03-03T08:46:39.448Z,58.75
2023-03-03T08:49:06.124Z,43.20
2023-03-03T08:51:34.456Z,51.67
2023-03-03T08:54:01.254Z,72.65
2023-03-03T08:56:27.996Z,43.70
2023-03-03T08:59:02.165Z,46.50
2023-03-03T09:01:32.912Z,54.80
2023-03-03T09:03:59.902Z,49.72
2023-03-03T09:06:26.564Z,39.80
2023-03-03T09:08:54.662Z,54.45
2023-03-03T09:11:27.581Z,37.35
2023-03-03T09:14:02.767Z,46.67
2023-03-03T09:16:34.797Z,49.15
2023-03-03T09:19:30.538Z,35.83
2023-03-03T09:22:03.283Z,28.85
2023-03-03T09:24:31.994Z,21.35
2023-03-03T09:26:59.643Z,35.85
2023-03-03T09:29:30.932Z,34.63
2023-03-03T09:32:14.780Z,42.28
2023-03-03T09:34:42.912Z,38.72
2023-03-03T09:37:33.970Z,35.95
2023-03-03T09:40:00.797Z,33.83
2023-03-03T09:42:56.822Z,38.58
2023-03-03T09:45:38.175Z,34.00
2023-03-03T09:48:15.490Z,33.15
2023-03-03T09:51:00.956Z,32.92
2023-03-03T09:53:54.350Z,44.50
2023-03-03T09:56:31.245Z,27.38
2023-03-03T09:59:00.741Z,33.10
2023-03-03T10:01:46.029Z,33.80
2023-03-03T10:04:50.834Z,35.75
2023-03-03T10:07:37.657Z,36.33
2023-03-03T10:10:31.860Z,31.50
2023-03-03T10:13:19.318Z,38.47
2023-03-03T10:16:11.075Z,34.90
2023-03-03T10:18:49.483Z,34.28
2023-03-03T10:21:42.360Z,37.05
2023-03-03T10:24:28.490Z,36.90
2023-03-03T10:27:13.888Z,16.55
2023-03-03T10:30:00.717Z,25.83
2023-03-03T10:32:49.485Z,32.92
2023-03-03T10:35:32.634Z,31.90
2023-03-03T10:38:14.638Z,36.95
2023-03-03T10:40:52.220Z,46.25
2023-03-03T10:43:47.674Z,38.75
2023-03-03T10:46:46.160Z,31.33
2023-03-03T10:50:10.039Z,32.25
2023-03-03T10:53:14.939Z,34.28
2023-03-03T10:55:53.310Z,34.30
2023-03-03T10:58:45.075Z,33.55
2023-03-03T11:01:26.066Z,32.92
2023-03-03T11:04:19.973Z,34.00
2023-03-03T11:06:57.682Z,35.75
2023-03-03T11:09:33.199Z,31.67
2023-03-03T11:12:16.583Z,32.60
2023-03-03T11:14:47.854Z,33.72
2023-03-03T11:17:26.261Z,33.80
2023-03-03T11:19:58.638Z,31.42
2023-03-03T11:22:37.886Z,35.15
2023-03-03T11:25:16.461Z,31.92
2023-03-03T11:27:51.992Z,29.67
2023-03-03T11:30:29.943Z,29.05
2023-03-03T11:33:18.656Z,32.00
2023-03-03T11:35:48.537Z,42.38
2023-03-03T11:38:17.868Z,32.28
2023-03-03T11:40:51.079Z,37.55
2023-03-03T11:43:36.699Z,30.17
2023-03-03T11:46:24.393Z,31.45
2023-03-03T11:49:03.402Z,36.42
2023-03-03T11:52:03.559Z,36.72
2023-03-03T11:54:46.326Z,28.05
2023-03-03T11:57:28.713Z,30.75
2023-03-03T12:00:15.775Z,31.23
2023-03-03T12:03:06.380Z,28.52
2023-03-03T12:06:17.439Z,48.30
2023-03-03T12:09:03.236Z,29.30
2023-03-03T12:11:51.652Z,34.03
2023-03-03T12:14:25.485Z,32.70
2023-03-03T12:17:06.492Z,40.83
2023-03-03T12:19:44.750Z,31.42
2023-03-03T12:22:20.959Z,28.73
2023-03-03T12:24:50.415Z,30.13
2023-03-03T12:27:31.715Z,31.33
2023-03-03T12:30:20.572Z,33.38
2023-03-03T12:33:08.800Z,28.48
2023-03-03T12:35:41.501Z,30.65
2023-03-03T12:38:25.934Z,28.70
2023-03-03T12:41:06.807Z,40.42
2023-03-03T12:43:54.432Z,28.02
2023-03-03T12:46:39.139Z,31.42
2023-03-03T12:49:05.942Z,33.30
2023-03-03T12:52:10.322Z,27.30
2023-03-03T12:54:45.810Z,32.97
2023-03-03T12:57:30.497Z,27.60
2023-03-03T13:00:12.373Z,33.58
2023-03-03T13:02:59.019Z,28.35
2023-03-03T13:05:31.683Z,52.05
2023-03-03T13:08:31.691Z,25.55
2023-03-03T13:11:07.933Z,31.27
2023-03-03T13:13:40.642Z,24.42
2023-03-03T13:16:17.091Z,28.52
2023-03-03T13:18:52.918Z,26.67
2023-03-03T13:21:50.707Z,29.38
2023-03-03T13:24:33.195Z,29.75
2023-03-03T13:27:10.816Z,29.38
2023-03-03T13:29:48.325Z,30.15
2023-03-03T13:32:19.764Z,32.60
2023-03-03T13:35:00.544Z,26.55
2023-03-03T13:37:29.637Z,29.13
2023-03-03T13:39:59.132Z,50.58
2023-03-03T13:42:47.344Z,34.70
2023-03-03T13:45:22.801Z,29.80
2023-03-03T13:48:15.844Z,26.35
2023-03-03T13:50:57.770Z,25.45
2023-03-03T13:53:52.914Z,31.88
2023-03-03T13:56:40.450Z,45.03
2023-03-03T13:59:40.748Z,40.63
2023-03-03T14:02:40.886Z,27.50
2023-03-03T14:05:30.221Z,27.98
2023-03-03T14:08:07.386Z,28.90
2023-03-03T14:10:58.739Z,34.90
2023-03-03T14:13:48.427Z,37.47
2023-03-03T14:16:49.035Z,32.70
2023-03-03T14:19:44.025Z,34.78
2023-03-03T14:22:28.967Z,32.58
2023-03-03T14:25:05.946Z,31.83
2023-03-03T14:27:35.569Z,32.08
2023-03-03T14:30:32.036Z,36.65
2023-03-03T14:33:07.977Z,28.73
2023-03-03T14:35:43.500Z,33.35
2023-03-03T14:38:18.814Z,27.88
2023-03-03T14:40:47.282Z,28.67
2023-03-03T14:43:25.674Z,29.98
2023-03-03T14:45:56.561Z,29.52
2023-03-03T14:48:25.895Z,27.48
2023-03-03T14:51:04.527Z,29.23
2023-03-03T14:53:44.560Z,28.52
2023-03-03T14:56:34.240Z,28.65
2023-03-03T14:59:19.999Z,26.70
2023-03-03T15:01:47.880Z,27.15
2023-03-03T15:04:14.532Z,27.25
2023-03-03T15:06:45.333Z,27.42
2023-03-03T15:09:43.250Z,28.77
2023-03-03T15:12:25.464Z,25.50
2023-03-03T15:15:13.613Z,27.95
2023-03-03T15:17:59.010Z,25.20
2023-03-03T15:20:40.857Z,25.10
2023-03-03T15:23:28.778Z,27.38
2023-03-03T15:26:14.198Z,27.23
2023-03-03T15:29:02.104Z,28.30
2023-03-03T15:31:49.695Z,24.45
2023-03-03T15:34:38.590Z,23.15
2023-03-03T15:37:27.272Z,23.73
2023-03-03T15:40:31.543Z,27.42
2023-03-03T15:43:24.433Z,24.92
2023-03-03T15:46:03.126Z,23.75
2023-03-03T15:48:45.005Z,27.00
2023-03-03T15:51:32.982Z,24.50
2023-03-03T15:54:31.552Z,23.55
2023-03-03T15:57:04.654Z,24.20
2023-03-03T15:59:50.950Z,25.10
2023-03-03T16:02:38.682Z,23.73
2023-03-03T16:05:31.460Z,22.67
2023-03-03T16:08:04.793Z,23.42
2023-03-03T16:10:55.372Z,22.58
2023-03-03T16:13:59.176Z,21.40
2023-03-03T16:16:36.221Z,22.00
2023-03-03T16:19:41.017Z,22.77
2023-03-03T16:22:16.798Z,21.42
2023-03-03T16:25:03.697Z,21.33
2023-03-03T16:27:44.917Z,20.30
2023-03-03T16:30:33.123Z,22.67
2023-03-03T16:33:19.247Z,22.40
2023-03-03T16:35:59.975Z,21.48
2023-03-03T16:38:57.973Z,20.45
2023-03-03T16:41:53.590Z,20.15
2023-03-03T16:44:20.122Z,18.92
2023-03-03T16:46:49.352Z,19.65
2023-03-03T16:49:33.203Z,21.98
2023-03-03T16:52:13.994Z,25.38
2023-03-03T16:54:54.261Z,21.90
2023-03-03T16:57:31.503Z,23.92
2023-03-03T17:00:19.382Z,21.95
2023-03-03T17:03:07.838Z,22.58
2023-03-03T17:05:44.219Z,21.05
2023-03-03T17:08:35.120Z,21.30
2023-03-03T17:11:32.020Z,18.98
2023-03-03T17:14:17.346Z,21.63
2023-03-03T17:17:09.074Z,22.20
2023-03-03T17:20:07.642Z,23.05
2023-03-03T17:22:37.276Z,17.67
2023-03-03T17:25:23.055Z,21.42
2023-03-03T17:28:15.895Z,19.08
2023-03-03T17:30:56.842Z,20.70
2023-03-03T17:33:41.648Z,22.05
2023-03-03T17:36:18.327Z,21.88
2023-03-03T17:39:18.880Z,22.10
2023-03-03T17:41:54.325Z,20.83
2023-03-03T17:44:20.930Z,26.63
2023-03-03T17:47:06.998Z,39.67
2023-03-03T17:50:15.885Z,24.45
2023-03-03T17:53:12.696Z,23.88
2023-03-03T17:55:54.406Z,23.52
2023-03-03T17:58:44.887Z,29.63
2023-03-03T18:01:18.845Z,24.10
2023-03-03T18:03:59.045Z,20.58
2023-03-03T18:06:47.361Z,20.88
2023-03-03T18:09:21.869Z,21.30
2023-03-03T18:12:10.320Z,20.70
2023-03-03T18:14:48.838Z,18.40
2023-03-03T18:17:35.450Z,21.25
2023-03-03T18:20:29.116Z,21.70
2023-03-03T18:22:55.910Z,20.98
2023-03-03T18:25:43.954Z,22.58
2023-03-03T18:28:22.124Z,28.48
2023-03-03T18:30:56.923Z,29.45
2023-03-03T18:33:58.221Z,23.83
2023-03-03T18:36:27.960Z,19.48
2023-03-03T18:38:57.511Z,22.85
2023-03-03T18:41:29.732Z,21.67
2023-03-03T18:44:00.830Z,19.15
2023-03-03T18:46:27.432Z,20.55
2023-03-03T18:49:12.895Z,20.40
2023-03-03T18:51:39.491Z,18.80
2023-03-03T18:54:16.924Z,22.48
2023-03-03T18:56:49.448Z,24.25
2023-03-03T18:59:36.079Z,21.73
2023-03-03T19:02:20.869Z,18.95
2023-03-03T19:04:56.020Z,19.15
2023-03-03T19:07:29.844Z,19.77
2023-03-03T19:10:25.925Z,20.45
2023-03-03T19:12:56.749Z,17.05
2023-03-03T19:15:29.581Z,20.35
2023-03-03T19:17:58.144Z,20.40
2023-03-03T19:20:26.800Z,18.38
2023-03-03T19:23:10.926Z,19.80
2023-03-03T19:25:37.935Z,19.23
2023-03-03T19:28:17.431Z,18.73
2023-03-03T19:31:10.526Z,21.40
2023-03-03T19:33:52.301Z,23.05
2023-03-03T19:36:38.301Z,20.63
2023-03-03T19:39:27.998Z,20.42
2023-03-03T19:41:57.359Z,22.45
2023-03-03T19:44:37.689Z,24.42
2023-03-03T19:47:27.659Z,20.92
2023-03-03T19:50:12.839Z,21.15
2023-03-03T19:53:01.207Z,32.22
2023-03-03T19:56:06.245Z,26.15
2023-03-03T19:58:38.714Z,27.50
2023-03-03T20:01:17.857Z,26.92
2023-03-03T20:03:55.124Z,27.95
2023-03-03T20:06:59.339Z,25.67
2023-03-03T20:09:40.988Z,23.05
2023-03-03T20:12:33.242Z,26.52
2023-03-03T20:15:13.865Z,27.85
2023-03-03T20:18:01.711Z,29.90
2023-03-03T20:20:46.374Z,23.80
2023-03-03T20:23:25.167Z,24.27
2023-03-03T20:26:06.547Z,24.20
2023-03-03T20:28:57.605Z,27.67
2023-03-03T20:31:42.712Z,27.10
2023-03-03T20:34:37.638Z,30.08
2023-03-03T20:37:29.482Z,30.60
2023-03-03T20:40:29.252Z,29.92
2023-03-03T20:43:06.426Z,27.85
2023-03-03T20:45:41.873Z,27.42
2023-03-03T20:48:35.769Z,30.85
2023-03-03T20:51:18.751Z,24.10
2023-03-03T20:53:57.297Z,26.05
2023-03-03T20:56:28.455Z,31.48
2023-03-03T20:59:32.333Z,22.58
2023-03-03T21:02:27.205Z,28.02
2023-03-03T21:05:20.243Z,26.98
2023-03-03T21:08:03.568Z,29.15
2023-03-03T21:10:35.862Z,28.17
2023-03-03T21:13:32.805Z,33.65
2023-03-03T21:16:09.184Z,30.00
2023-03-03T21:18:35.878Z,29.02
2023-03-03T21:21:03.655Z,28.75
2023-03-03T21:23:30.364Z,29.17
2023-03-03T21:25:58.283Z,30.85
2023-03-03T21:28:31.774Z,28.83
2023-03-03T21:31:15.397Z,29.13
2023-03-03T21:33:49.868Z,29.48
2023-03-03T21:36:20.775Z,28.20
2023-03-03T21:38:47.661Z,29.17
2023-03-03T21:41:16.222Z,29.83
2023-03-03T21:43:44.565Z,28.35
2023-03-03T21:46:12.520Z,28.35
2023-03-03T21:48:42.885Z,31.08
2023-03-03T21:51:10.482Z,29.70
2023-03-03T21:53:37.088Z,25.60
2023-03-03T21:56:03.837Z,24.60
2023-03-03T21:58:30.436Z,24.20
2023-03-03T22:00:57.127Z,24.35
2023-03-03T22:03:23.808Z,23.63
2023-03-03T22:05:50.403Z,22.73
2023-03-03T22:08:22.740Z,20.88
2023-03-03T22:10:53.733Z,24.00
2023-03-03T22:13:20.744Z,20.85
2023-03-03T22:15:48.336Z,20.60
2023-03-03T22:18:18.118Z,21.00
2023-03-03T22:20:48.907Z,20.90
2023-03-03T22:23:15.801Z,18.60
2023-03-03T22:25:42.640Z,19.75
2023-03-03T22:28:09.513Z,17.38
2023-03-03T22:30:36.670Z,18.52
2023-03-03T22:33:03.761Z,13.82
2023-03-03T22:35:30.808Z,13.98
2023-03-03T22:37:57.799Z,13.38
2023-03-03T22:40:24.851Z,11.05
2023-03-03T22:42:51.662Z,11.23
2023-03-03T22:45:18.257Z,11.20
2023-03-03T22:47:44.892Z,11.15
2023-03-03T22:50:12.326Z,11.27
2023-03-03T22:52:38.885Z,10.65
2023-03-03T22:55:05.990Z,8.65
2023-03-03T22:57:32.579Z,9.00
2023-03-03T22:59:59.948Z,9.50
2023-03-03T23:02:26.634Z,8.68
2023-03-03T23:04:58.033Z,9.68
2023-03-03T23:07:26.286Z,12.43
2023-03-03T23:09:52.938Z,11.90
2023-03-03T23:12:20.003Z,11.75
2023-03-03T23:14:46.542Z,7.50
2023-03-03T23:17:13.198Z,11.50
2023-03-03T23:19:39.791Z,9.50
2023-03-03T23:22:06.406Z,9.90
2023-03-03T23:24:33.181Z,16.20
2023-03-03T23:27:00.650Z,10.10
2023-03-03T23:29:27.343Z,11.68
2023-03-03T23:31:54.156Z,13.35
2023-03-03T23:34:20.936Z,11.50
2023-03-03T23:36:47.919Z,11.50
2023-03-03T23:39:15.260Z,11.07
2023-03-03T23:41:41.981Z,11.10
2023-03-03T23:44:08.647Z,10.13
2023-03-03T23:46:35.341Z,11.63
2023-03-03T23:49:02.046Z,12.10
2023-03-03T23:51:28.758Z,12.85
2023-03-03T23:53:56.228Z,12.23
2023-03-03T23:56:23.274Z,13.63
2023-03-03T23:58:49.897Z,10.32
